createdAt,value
2017-09-05T00:01:49.100Z,3.62
2017-09-05T00:04:16.606Z,4.07
2017-09-05T00:06:43.929Z,3.67
2017-09-05T00:09:26.132Z,3.35
2017-09-05T00:12:08.325Z,2.92
2017-09-05T00:14:40.448Z,3.65
2017-09-05T00:17:28.455Z,2.80
2017-09-05T00:19:55.785Z,3.50
2017-09-05T00:22:26.845Z,3.20
2017-09-05T00:24:54.176Z,3.80
2017-09-05T00:27:21.497Z,3.55
2017-09-05T00:29:49.823Z,3.97
2017-09-05T00:32:17.332Z,3.65
2017-09-05T00:34:44.841Z,3.50
2017-09-05T00:37:12.344Z,2.90
2017-09-05T00:39:40.850Z,3.60
2017-09-05T00:42:08.177Z,3.12
2017-09-05T00:44:35.501Z,3.50
2017-09-05T00:47:03.022Z,3.42
2017-09-05T00:49:30.537Z,3.30
2017-09-05T00:51:58.053Z,4.07
2017-09-05T00:54:25.553Z,2.92
2017-09-05T00:56:53.065Z,3.85
2017-09-05T00:59:20.569Z,3.35
2017-09-05T01:01:48.171Z,3.72
2017-09-05T01:04:15.676Z,3.20
2017-09-05T01:06:43.188Z,3.87
2017-09-05T01:09:10.704Z,3.37
2017-09-05T01:11:38.203Z,3.03
2017-09-05T01:14:05.519Z,3.50
2017-09-05T01:16:33.028Z,3.12
2017-09-05T01:19:00.536Z,2.95
2017-09-05T01:21:28.033Z,2.40
2017-09-05T01:23:55.541Z,2.25
2017-09-05T01:26:23.056Z,2.00
2017-09-05T01:28:50.557Z,2.03
2017-09-05T01:31:18.057Z,2.20
2017-09-05T01:33:45.560Z,2.20
2017-09-05T01:36:13.069Z,2.83
2017-09-05T01:38:40.580Z,2.15
2017-09-05T01:41:08.085Z,2.53
2017-09-05T01:43:35.610Z,3.05
2017-09-05T01:46:03.117Z,2.95
2017-09-05T01:48:30.624Z,3.42
2017-09-05T01:50:58.133Z,3.20
2017-09-05T01:53:25.640Z,3.58
2017-09-05T01:55:53.157Z,3.05
2017-09-05T01:58:20.656Z,2.92
2017-09-05T02:00:48.160Z,3.20
2017-09-05T02:03:15.688Z,3.62
2017-09-05T02:05:44.217Z,3.10
2017-09-05T02:08:11.721Z,3.40
2017-09-05T02:10:39.229Z,3.22
2017-09-05T02:13:06.741Z,3.70
2017-09-05T02:15:34.249Z,3.42
2017-09-05T02:18:01.761Z,3.60
2017-09-05T02:20:29.269Z,2.65
2017-09-05T02:22:58.729Z,3.10
2017-09-05T02:25:26.240Z,3.40
2017-09-05T02:27:53.748Z,3.60
2017-09-05T02:30:21.263Z,3.30
2017-09-05T02:32:48.784Z,4.20
2017-09-05T02:35:16.300Z,3.05
2017-09-05T02:37:43.803Z,3.85
2017-09-05T02:40:13.250Z,3.25
2017-09-05T02:42:40.770Z,2.83
2017-09-05T02:45:10.221Z,3.62
2017-09-05T02:47:38.724Z,3.28
2017-09-05T02:50:07.240Z,3.00
2017-09-05T02:52:34.744Z,3.00
2017-09-05T02:55:02.252Z,2.97
2017-09-05T02:57:29.761Z,3.28
2017-09-05T02:59:57.272Z,2.75
2017-09-05T03:02:24.768Z,3.17
2017-09-05T03:04:52.274Z,3.35
2017-09-05T03:07:19.787Z,3.40
2017-09-05T03:09:47.297Z,3.10
2017-09-05T03:12:15.793Z,2.67
2017-09-05T03:14:45.321Z,2.95
2017-09-05T03:17:12.835Z,2.97
2017-09-05T03:19:40.350Z,2.55
2017-09-05T03:22:07.852Z,3.10
2017-09-05T03:24:35.352Z,2.22
2017-09-05T03:27:02.856Z,2.70
2017-09-05T03:29:30.362Z,2.90
2017-09-05T03:31:57.867Z,2.40
2017-09-05T03:34:25.369Z,2.20
2017-09-05T03:36:52.875Z,2.15
2017-09-05T03:39:20.375Z,2.30
2017-09-05T03:41:47.889Z,2.65
2017-09-05T03:44:15.396Z,2.50
2017-09-05T03:46:42.921Z,3.00
2017-09-05T03:49:10.666Z,2.72
2017-09-05T03:51:38.169Z,2.53
2017-09-05T03:54:05.678Z,2.55
2017-09-05T03:56:33.175Z,2.60
2017-09-05T03:59:00.690Z,2.47
2017-09-05T04:01:28.189Z,2.67
2017-09-05T04:03:55.693Z,2.90
2017-09-05T04:06:24.188Z,2.80
2017-09-05T04:08:51.715Z,2.75
2017-09-05T04:11:19.222Z,2.80
2017-09-05T04:13:46.733Z,2.53
2017-09-05T04:16:14.240Z,2.42
2017-09-05T04:18:41.740Z,2.20
2017-09-05T04:21:09.237Z,2.87
2017-09-05T04:23:36.725Z,3.30
2017-09-05T04:26:04.261Z,2.85
2017-09-05T04:28:31.768Z,2.70
2017-09-05T04:30:59.282Z,2.42
2017-09-05T04:33:26.772Z,2.70
2017-09-05T04:35:54.279Z,2.22
2017-09-05T04:38:21.779Z,2.55
2017-09-05T04:40:49.280Z,2.87
2017-09-05T04:43:16.792Z,2.60
2017-09-05T04:45:44.333Z,2.62
2017-09-05T04:48:12.061Z,2.47
2017-09-05T04:50:39.578Z,2.55
2017-09-05T04:53:07.078Z,2.95
2017-09-05T04:55:34.609Z,2.78
2017-09-05T04:58:02.114Z,2.72
2017-09-05T05:00:29.613Z,2.80
2017-09-05T05:02:57.116Z,3.05
2017-09-05T05:05:24.616Z,2.65
2017-09-05T05:07:54.057Z,2.80
2017-09-05T05:10:22.561Z,2.92
2017-09-05T05:12:50.061Z,2.75
2017-09-05T05:15:17.559Z,2.40
2017-09-05T05:17:45.069Z,2.65
2017-09-05T05:20:12.577Z,2.70
2017-09-05T05:22:40.085Z,2.62
2017-09-05T05:25:07.590Z,2.30
2017-09-05T05:27:35.091Z,2.85
2017-09-05T05:30:02.602Z,2.62
2017-09-05T05:32:30.117Z,2.33
2017-09-05T05:34:57.636Z,2.33
2017-09-05T05:37:25.144Z,2.30
2017-09-05T05:39:52.649Z,2.53
2017-09-05T05:42:20.144Z,2.58
2017-09-05T05:44:47.643Z,2.85
2017-09-05T05:47:17.100Z,3.53
2017-09-05T05:49:44.608Z,3.33
2017-09-05T05:52:12.120Z,2.97
2017-09-05T05:54:39.628Z,4.00
2017-09-05T05:57:07.134Z,3.25
2017-09-05T05:59:34.673Z,2.85
2017-09-05T06:02:02.184Z,3.10
2017-09-05T06:04:29.395Z,3.57
2017-09-05T06:06:56.914Z,3.03
2017-09-05T06:09:24.145Z,3.03
2017-09-05T06:11:52.668Z,3.22
2017-09-05T06:14:20.182Z,3.03
2017-09-05T06:16:47.701Z,2.83
2017-09-05T06:19:15.924Z,2.90
2017-09-05T06:21:43.139Z,3.60
2017-09-05T06:24:10.372Z,3.73
2017-09-05T06:26:37.872Z,3.20
2017-09-05T06:29:05.385Z,3.12
2017-09-05T06:31:32.600Z,2.40
2017-09-05T06:34:00.109Z,2.42
2017-09-05T06:36:27.328Z,2.60
2017-09-05T06:38:54.548Z,2.60
2017-09-05T06:41:21.772Z,2.30
2017-09-05T06:43:48.994Z,2.83
2017-09-05T06:46:16.207Z,2.00
2017-09-05T06:48:43.420Z,2.03
2017-09-05T06:51:12.586Z,2.20
2017-09-05T06:53:39.804Z,2.30
2017-09-05T06:56:07.028Z,2.30
2017-09-05T06:58:34.254Z,2.50
2017-09-05T07:01:01.472Z,2.93
2017-09-05T07:03:28.693Z,2.80
2017-09-05T07:05:55.922Z,2.20
2017-09-05T07:08:23.148Z,2.27
2017-09-05T07:10:50.369Z,2.40
2017-09-05T07:13:17.583Z,2.33
2017-09-05T07:15:44.792Z,2.20
2017-09-05T07:18:12.004Z,1.90
2017-09-05T07:20:39.221Z,2.93
2017-09-05T07:23:06.444Z,2.00
2017-09-05T07:25:33.665Z,2.63
2017-09-05T07:28:00.888Z,2.70
2017-09-05T07:30:28.111Z,3.57
2017-09-05T07:32:55.323Z,3.67
2017-09-05T07:35:22.533Z,2.83
2017-09-05T07:37:49.749Z,3.37
2017-09-05T07:40:16.973Z,2.90
2017-09-05T07:42:44.188Z,2.63
2017-09-05T07:45:11.406Z,2.43
2017-09-05T07:47:40.581Z,2.67
2017-09-05T07:50:07.792Z,2.13
2017-09-05T07:52:35.005Z,2.20
2017-09-05T07:55:02.224Z,2.47
2017-09-05T07:57:29.448Z,2.47
2017-09-05T07:59:56.669Z,2.50
2017-09-05T08:02:23.910Z,2.20
2017-09-05T08:04:51.128Z,2.50
2017-09-05T08:07:18.340Z,2.37
2017-09-05T08:09:45.562Z,2.50
2017-09-05T08:12:12.808Z,2.40
2017-09-05T08:14:40.029Z,1.80
2017-09-05T08:17:09.213Z,2.30
2017-09-05T08:19:36.442Z,2.50
2017-09-05T08:22:03.669Z,2.17
2017-09-05T08:24:30.890Z,2.20
2017-09-05T08:26:58.117Z,2.00
2017-09-05T08:29:25.334Z,2.10
2017-09-05T08:31:52.552Z,2.90
2017-09-05T08:34:19.772Z,2.60
2017-09-05T08:36:46.992Z,2.80
2017-09-05T08:39:14.216Z,2.20
2017-09-05T08:41:43.386Z,2.80
2017-09-05T08:44:10.600Z,2.30
2017-09-05T08:46:37.826Z,2.30
2017-09-05T08:49:06.953Z,2.60
2017-09-05T08:51:34.544Z,2.87
2017-09-05T08:54:01.761Z,2.53
2017-09-05T08:56:29.728Z,2.90
2017-09-05T08:58:56.946Z,2.70
2017-09-05T09:01:24.164Z,2.10
2017-09-05T09:03:51.394Z,2.60
2017-09-05T09:06:18.613Z,2.70
2017-09-05T09:08:45.841Z,2.40
2017-09-05T09:11:13.065Z,2.50
2017-09-05T09:13:40.285Z,2.50
2017-09-05T09:16:07.509Z,2.37
2017-09-05T09:18:36.684Z,2.50
2017-09-05T09:21:03.916Z,2.30
2017-09-05T09:23:31.137Z,2.13
2017-09-05T09:25:58.349Z,2.03
2017-09-05T09:28:25.569Z,1.93
2017-09-05T09:30:54.716Z,2.07
2017-09-05T09:33:21.937Z,2.20
2017-09-05T09:35:51.072Z,2.30
2017-09-05T09:38:18.273Z,2.20
2017-09-05T09:40:45.505Z,2.07
2017-09-05T09:43:12.720Z,1.83
2017-09-05T09:45:39.945Z,2.03
2017-09-05T09:48:07.160Z,1.90
2017-09-05T09:50:34.372Z,1.80
2017-09-05T09:53:01.588Z,1.70
2017-09-05T09:55:28.816Z,2.17
2017-09-05T09:57:56.041Z,1.93
2017-09-05T10:00:23.261Z,1.73
2017-09-05T10:02:50.478Z,2.10
2017-09-05T10:05:17.694Z,1.90
2017-09-05T10:07:44.911Z,2.00
2017-09-05T10:10:12.125Z,2.03
2017-09-05T10:12:39.340Z,2.00
2017-09-05T10:15:06.561Z,2.80
2017-09-05T10:17:33.782Z,2.07
2017-09-05T10:20:00.999Z,2.20
2017-09-05T10:22:28.220Z,2.10
2017-09-05T10:24:57.389Z,2.27
2017-09-05T10:27:24.617Z,2.70
2017-09-05T10:29:51.836Z,1.90
2017-09-05T10:32:19.056Z,2.30
2017-09-05T10:34:46.272Z,2.20
2017-09-05T10:37:13.519Z,2.60
2017-09-05T10:39:42.929Z,2.40
2017-09-05T10:42:10.149Z,2.93
2017-09-05T10:44:37.385Z,2.40
2017-09-05T10:47:04.610Z,2.23
2017-09-05T10:49:31.833Z,2.97
2017-09-05T10:51:59.053Z,2.60
2017-09-05T10:54:26.274Z,2.50
2017-09-05T10:56:55.449Z,2.37
2017-09-05T10:59:22.666Z,2.57
2017-09-05T11:01:49.880Z,2.53
2017-09-05T11:04:17.097Z,2.53
2017-09-05T11:06:44.317Z,2.40
2017-09-05T11:09:13.500Z,2.30
2017-09-05T11:11:40.717Z,2.40
2017-09-05T11:14:07.957Z,2.70
2017-09-05T11:16:35.182Z,2.30
2017-09-05T11:19:04.343Z,2.30
2017-09-05T11:21:31.560Z,2.63
2017-09-05T11:24:00.732Z,2.83
2017-09-05T11:26:27.957Z,2.53
2017-09-05T11:28:57.110Z,2.57
2017-09-05T11:31:24.328Z,2.73
2017-09-05T11:33:51.548Z,3.00
2017-09-05T11:36:18.875Z,3.10
2017-09-05T11:38:46.088Z,2.67
2017-09-05T11:41:14.056Z,2.70
2017-09-05T11:43:41.272Z,2.97
2017-09-05T11:46:08.485Z,2.50
2017-09-05T11:48:35.710Z,2.87
2017-09-05T11:51:02.921Z,2.80
2017-09-05T11:53:30.136Z,2.87
2017-09-05T11:55:57.360Z,3.30
2017-09-05T11:58:24.580Z,2.90
2017-09-05T12:00:51.809Z,2.67
2017-09-05T12:03:19.024Z,3.10
2017-09-05T12:05:46.250Z,2.97
2017-09-05T12:08:13.472Z,2.57
2017-09-05T12:10:40.697Z,2.30
2017-09-05T12:13:09.864Z,2.70
2017-09-05T12:15:37.122Z,2.30
2017-09-05T12:18:04.365Z,2.47
2017-09-05T12:20:31.588Z,2.50
2017-09-05T12:22:58.807Z,2.50
2017-09-05T12:25:26.022Z,2.90
2017-09-05T12:27:53.250Z,2.90
2017-09-05T12:30:20.211Z,2.90
2017-09-05T12:32:47.165Z,2.87
2017-09-05T12:35:14.397Z,2.87
2017-09-05T12:37:41.613Z,2.87
2017-09-05T12:40:08.841Z,2.77
2017-09-05T12:42:36.056Z,3.10
2017-09-05T12:45:03.286Z,3.23
2017-09-05T12:47:30.505Z,2.37
2017-09-05T12:49:57.729Z,3.03
2017-09-05T12:52:24.952Z,2.77
2017-09-05T12:54:52.173Z,2.37
2017-09-05T12:57:19.392Z,2.67
2017-09-05T12:59:46.604Z,2.70
2017-09-05T13:02:15.733Z,2.80
2017-09-05T13:04:42.950Z,2.50
2017-09-05T13:07:10.171Z,1.63
2017-09-05T13:09:37.405Z,2.47
2017-09-05T13:12:04.621Z,2.10
2017-09-05T13:14:31.855Z,2.73
2017-09-05T13:16:59.068Z,2.27
2017-09-05T13:19:26.288Z,2.43
2017-09-05T13:21:53.500Z,2.40
2017-09-05T13:24:20.717Z,2.20
2017-09-05T13:26:47.937Z,2.50
2017-09-05T13:29:15.156Z,2.53
2017-09-05T13:31:42.374Z,2.83
2017-09-05T13:34:09.605Z,2.10
2017-09-05T13:36:36.834Z,2.60
2017-09-05T13:39:03.824Z,2.33
2017-09-05T13:41:31.045Z,2.27
2017-09-05T13:44:00.209Z,2.53
2017-09-05T13:46:27.425Z,2.70
2017-09-05T13:48:56.593Z,2.63
2017-09-05T13:51:23.809Z,2.13
2017-09-05T13:53:52.957Z,2.50
2017-09-05T13:56:20.181Z,2.00
2017-09-05T13:58:47.414Z,2.20
2017-09-05T14:01:14.635Z,2.60
2017-09-05T14:03:41.852Z,2.43
2017-09-05T14:06:09.069Z,2.07
2017-09-05T14:08:38.877Z,2.00
2017-09-05T14:11:06.097Z,2.63
2017-09-05T14:13:35.323Z,2.30
2017-09-05T14:16:02.549Z,1.83
2017-09-05T14:18:29.773Z,1.90
2017-09-05T14:20:57.000Z,1.73
2017-09-05T14:23:24.267Z,1.87
2017-09-05T14:25:51.756Z,1.80
2017-09-05T14:28:18.973Z,2.50
2017-09-05T14:30:46.187Z,2.33
2017-09-05T14:33:13.413Z,2.30
2017-09-05T14:35:40.634Z,1.73
2017-09-05T14:38:09.808Z,1.70
2017-09-05T14:40:37.034Z,1.50
2017-09-05T14:43:04.264Z,2.53
2017-09-05T14:45:31.484Z,2.00
2017-09-05T14:47:58.709Z,1.80
2017-09-05T14:50:25.929Z,2.37
2017-09-05T14:52:53.161Z,2.20
2017-09-05T14:55:20.388Z,1.57
2017-09-05T14:57:49.549Z,2.03
2017-09-05T15:00:16.772Z,1.70
2017-09-05T15:02:43.987Z,2.20
2017-09-05T15:05:11.210Z,2.10
2017-09-05T15:07:38.433Z,2.57
2017-09-05T15:10:05.651Z,2.10
2017-09-05T15:12:32.868Z,1.80
2017-09-05T15:15:02.021Z,1.80
2017-09-05T15:17:29.253Z,2.27
2017-09-05T15:19:56.448Z,2.03
2017-09-05T15:22:25.622Z,1.77
2017-09-05T15:24:52.846Z,1.70
2017-09-05T15:27:20.076Z,2.10
2017-09-05T15:29:47.296Z,1.90
2017-09-05T15:32:14.516Z,2.00
2017-09-05T15:34:41.749Z,1.50
2017-09-05T15:37:08.964Z,2.60
2017-09-05T15:39:36.180Z,2.00
2017-09-05T15:42:03.409Z,2.00
2017-09-05T15:44:32.581Z,2.03
2017-09-05T15:46:59.801Z,2.00
2017-09-05T15:49:27.021Z,1.77
2017-09-05T15:51:54.244Z,2.10
2017-09-05T15:54:23.418Z,2.00
2017-09-05T15:56:50.645Z,2.10
2017-09-05T15:59:19.804Z,2.60
2017-09-05T16:01:47.024Z,1.83
2017-09-05T16:04:16.160Z,2.13
2017-09-05T16:06:43.384Z,2.20
2017-09-05T16:09:12.552Z,1.70
2017-09-05T16:11:39.771Z,2.63
2017-09-05T16:14:07.050Z,2.00
2017-09-05T16:16:36.270Z,2.03
2017-09-05T16:19:03.503Z,3.13
2017-09-05T16:21:30.715Z,2.20
2017-09-05T16:23:58.004Z,2.80
2017-09-05T16:26:27.166Z,1.90
2017-09-05T16:28:54.447Z,2.00
2017-09-05T16:31:21.669Z,2.30
2017-09-05T16:33:55.396Z,2.23
2017-09-05T16:36:22.708Z,1.90
2017-09-05T16:41:27.522Z,2.50
2017-09-05T16:43:56.748Z,2.03
2017-09-05T16:46:24.039Z,2.00
2017-09-05T16:48:51.258Z,1.80
2017-09-05T16:51:18.545Z,2.10
2017-09-05T16:53:45.830Z,2.10
2017-09-05T16:56:13.044Z,2.07
2017-09-05T16:58:40.271Z,2.07
2017-09-05T17:01:07.683Z,2.60
2017-09-05T17:03:34.973Z,2.60
2017-09-05T17:06:02.045Z,2.00
2017-09-05T17:08:29.267Z,2.00
2017-09-05T17:10:56.492Z,2.13
2017-09-05T17:13:23.780Z,2.97
2017-09-05T17:15:51.061Z,2.20
2017-09-05T17:18:18.337Z,2.53
2017-09-05T17:20:45.761Z,2.27
2017-09-05T17:23:13.172Z,2.07
2017-09-05T17:25:42.344Z,3.90
2017-09-05T17:28:09.759Z,2.20
2017-09-05T17:30:37.169Z,3.00
2017-09-05T17:33:04.473Z,3.00
2017-09-05T17:35:31.766Z,2.30
2017-09-05T17:37:59.173Z,2.80
2017-09-05T17:40:26.494Z,2.77
2017-09-05T17:42:53.815Z,2.70
2017-09-05T17:45:21.219Z,3.07
2017-09-05T17:47:48.540Z,2.80
2017-09-05T17:50:15.830Z,3.73
2017-09-05T17:52:43.048Z,4.90
2017-09-05T17:55:12.376Z,3.00
2017-09-05T17:57:39.788Z,3.20
2017-09-05T18:00:07.073Z,3.43
2017-09-05T18:02:34.363Z,3.30
2017-09-05T18:05:01.773Z,3.60
2017-09-05T18:07:29.177Z,3.10
2017-09-05T18:09:56.456Z,3.07
2017-09-05T18:12:23.667Z,3.20
2017-09-05T18:14:51.079Z,3.50
2017-09-05T18:17:18.474Z,3.20
2017-09-05T18:19:45.762Z,2.97
2017-09-05T18:22:13.005Z,3.13
2017-09-05T18:24:40.289Z,3.10
2017-09-05T18:27:08.545Z,3.50
2017-09-05T18:29:35.956Z,3.10
2017-09-05T18:32:03.371Z,3.47
2017-09-05T18:34:30.588Z,2.73
2017-09-05T18:36:57.682Z,3.47
2017-09-05T18:39:24.963Z,3.10
2017-09-05T18:41:52.241Z,3.03
2017-09-05T18:44:19.537Z,3.20
2017-09-05T18:46:48.755Z,3.30
2017-09-05T18:49:16.173Z,3.50
2017-09-05T18:51:43.453Z,3.50
2017-09-05T18:54:10.733Z,3.20
2017-09-05T18:56:38.049Z,3.20
2017-09-05T18:59:05.484Z,3.27
2017-09-05T19:01:32.773Z,3.20
2017-09-05T19:04:00.070Z,4.00
2017-09-05T19:06:27.365Z,3.83
2017-09-05T19:08:54.670Z,3.97
2017-09-05T19:11:21.958Z,3.50
2017-09-05T19:13:49.237Z,3.70
2017-09-05T19:16:18.591Z,3.73
2017-09-05T19:18:45.891Z,3.23
2017-09-05T19:21:13.301Z,3.40
2017-09-05T19:23:40.589Z,3.77
2017-09-05T19:26:07.997Z,3.50
2017-09-05T19:28:35.433Z,3.37
2017-09-05T19:31:02.560Z,3.30
2017-09-05T19:33:31.776Z,3.03
2017-09-05T19:35:58.998Z,3.60
2017-09-05T19:38:26.438Z,4.07
2017-09-05T19:40:55.784Z,3.40
2017-09-05T19:43:23.069Z,3.60
2017-09-05T19:45:50.370Z,4.30
2017-09-05T19:48:17.784Z,2.83
2017-09-05T19:50:45.226Z,3.57
2017-09-05T19:53:12.730Z,3.67
2017-09-05T19:55:40.014Z,3.47
2017-09-05T19:58:07.307Z,3.40
2017-09-05T20:00:34.552Z,2.87
2017-09-05T20:03:03.790Z,3.47
2017-09-05T20:05:31.081Z,3.23
2017-09-05T20:07:58.499Z,3.43
2017-09-05T20:10:25.781Z,3.50
2017-09-05T20:12:53.004Z,3.40
2017-09-05T20:15:20.287Z,3.43
2017-09-05T20:17:47.712Z,3.90
2017-09-05T20:20:15.005Z,3.90
2017-09-05T20:22:42.425Z,3.93
2017-09-05T20:25:09.716Z,3.63
2017-09-05T20:27:36.995Z,3.80
2017-09-05T20:30:04.221Z,4.07
2017-09-05T20:32:31.506Z,3.73
2017-09-05T20:34:58.790Z,3.40
2017-09-05T20:37:26.081Z,4.50
2017-09-05T20:39:53.366Z,4.57
2017-09-05T20:42:20.588Z,3.97
2017-09-05T20:44:47.812Z,3.20
2017-09-05T20:47:17.034Z,3.80
2017-09-05T20:49:44.316Z,3.60
2017-09-05T20:52:13.461Z,4.10
2017-09-05T20:54:40.684Z,3.50
2017-09-05T20:57:07.952Z,3.70
2017-09-05T20:59:37.174Z,3.90
2017-09-05T21:02:04.459Z,4.63
2017-09-05T21:04:31.743Z,3.90
2017-09-05T21:06:59.025Z,3.97
2017-09-05T21:09:26.310Z,3.80
2017-09-05T21:11:55.526Z,4.17
2017-09-05T21:14:22.777Z,4.00
2017-09-05T21:16:50.061Z,4.20
2017-09-05T21:19:19.199Z,4.40
2017-09-05T21:21:46.425Z,4.07
2017-09-05T21:24:13.709Z,4.40
2017-09-05T21:26:42.934Z,4.13
2017-09-05T21:29:10.215Z,4.20
2017-09-05T21:31:37.505Z,4.27
2017-09-05T21:34:04.732Z,4.17
2017-09-05T21:36:31.960Z,4.47
2017-09-05T21:38:59.246Z,4.47
2017-09-05T21:41:26.527Z,3.87
2017-09-05T21:43:53.818Z,3.60
2017-09-05T21:46:21.045Z,4.10
2017-09-05T21:48:48.280Z,3.97
2017-09-05T21:51:15.567Z,3.70
2017-09-05T21:53:44.731Z,3.77
2017-09-05T21:56:11.952Z,3.90
2017-09-05T21:58:39.172Z,3.47
2017-09-05T22:01:08.336Z,3.50
2017-09-05T22:03:35.557Z,3.13
2017-09-05T22:06:02.770Z,3.83
2017-09-05T22:08:29.987Z,3.20
2017-09-05T22:10:57.218Z,3.50
2017-09-05T22:13:24.440Z,3.70
2017-09-05T22:15:51.652Z,3.50
2017-09-05T22:18:24.399Z,3.40
2017-09-05T22:20:57.212Z,3.30
2017-09-05T22:23:26.390Z,3.40
2017-09-05T22:25:59.205Z,3.87
2017-09-05T22:28:32.098Z,3.33
2017-09-05T22:30:59.322Z,3.20
2017-09-05T22:33:26.544Z,3.30
2017-09-05T22:35:53.760Z,3.20
2017-09-05T22:38:20.980Z,3.10
2017-09-05T22:40:48.197Z,2.80
2017-09-05T22:43:15.415Z,3.10
2017-09-05T22:45:42.652Z,2.90
2017-09-05T22:48:09.876Z,3.20
2017-09-05T22:50:37.089Z,2.90
2017-09-05T22:53:04.308Z,2.90
2017-09-05T22:55:31.524Z,3.03
2017-09-05T22:57:58.740Z,3.53
2017-09-05T23:00:25.962Z,3.13
2017-09-05T23:02:53.180Z,3.00
2017-09-05T23:05:20.400Z,2.83
2017-09-05T23:07:47.612Z,3.00
2017-09-05T23:10:14.842Z,3.00
2017-09-05T23:12:42.066Z,2.60
2017-09-05T23:15:11.217Z,3.00
2017-09-05T23:17:38.441Z,3.07
2017-09-05T23:20:05.660Z,2.80
2017-09-05T23:22:32.875Z,3.10
2017-09-05T23:25:00.106Z,2.83
2017-09-05T23:27:27.325Z,2.67
2017-09-05T23:29:54.542Z,2.87
2017-09-05T23:32:23.746Z,2.80
2017-09-05T23:34:50.960Z,2.47
2017-09-05T23:37:18.182Z,2.73
2017-09-05T23:39:45.399Z,2.47
2017-09-05T23:42:12.620Z,2.23
2017-09-05T23:44:39.840Z,3.20
2017-09-05T23:47:07.056Z,2.50
2017-09-05T23:49:34.276Z,2.40
2017-09-05T23:52:01.492Z,2.50
2017-09-05T23:54:28.708Z,2.50
2017-09-05T23:56:55.928Z,3.00
2017-09-05T23:59:23.152Z,2.60
